createdAt,value
2023-02-08T00:00:06.370Z,-1.88
2023-02-08T00:02:34.249Z,-2.64
2023-02-08T00:05:00.776Z,-1.95
2023-02-08T00:07:27.577Z,-1.79
2023-02-08T00:09:54.221Z,-1.82
2023-02-08T00:12:20.827Z,-2.23
2023-02-08T00:14:47.471Z,-1.78
2023-02-08T00:17:14.131Z,-1.74
2023-02-08T00:19:40.765Z,-2.11
2023-02-08T00:22:07.439Z,-1.60
2023-02-08T00:24:34.032Z,-1.33
2023-02-08T00:27:00.565Z,-1.79
2023-02-08T00:29:27.235Z,-1.80
2023-02-08T00:31:53.847Z,-1.05
2023-02-08T00:34:20.424Z,-1.11
2023-02-08T00:36:47.152Z,-1.09
2023-02-08T00:39:13.846Z,-1.10
2023-02-08T00:41:40.845Z,-1.34
2023-02-08T00:44:07.507Z,-1.13
2023-02-08T00:46:35.375Z,-1.15
2023-02-08T00:49:02.016Z,-0.74
2023-02-08T00:51:28.680Z,-0.91
2023-02-08T00:53:55.295Z,-0.70
2023-02-08T00:56:22.650Z,-1.16
2023-02-08T00:58:49.299Z,-0.68
2023-02-08T01:01:17.085Z,-0.82
2023-02-08T01:03:44.632Z,-0.50
2023-02-08T01:06:15.309Z,-0.58
2023-02-08T01:08:42.020Z,-1.01
2023-02-08T01:11:11.578Z,-0.56
2023-02-08T01:13:38.716Z,-0.42
2023-02-08T01:16:16.835Z,-0.28
2023-02-08T01:18:46.202Z,-0.69
2023-02-08T01:21:19.078Z,-0.86
2023-02-08T01:23:46.567Z,-0.22
2023-02-08T01:26:15.005Z,-0.17
2023-02-08T01:28:41.734Z,-0.70
2023-02-08T01:31:11.942Z,-0.78
2023-02-08T01:33:39.048Z,-0.28
2023-02-08T01:36:07.202Z,-0.26
2023-02-08T01:38:35.268Z,-0.18
2023-02-08T01:41:03.424Z,-0.39
2023-02-08T01:43:32.863Z,-0.36
2023-02-08T01:45:59.597Z,-0.41
2023-02-08T01:48:31.811Z,-0.47
2023-02-08T01:51:03.409Z,-0.21
2023-02-08T01:53:33.401Z,-0.42
2023-02-08T01:56:04.072Z,-0.26
2023-02-08T01:58:34.112Z,-0.99
2023-02-08T02:01:02.672Z,-0.57
2023-02-08T02:03:29.297Z,-0.64
2023-02-08T02:06:03.255Z,-0.47
2023-02-08T02:08:31.220Z,-0.68
2023-02-08T02:10:58.043Z,-0.55
2023-02-08T02:13:26.401Z,-0.76
2023-02-08T02:15:54.712Z,-0.88
2023-02-08T02:18:29.724Z,-0.82
2023-02-08T02:21:11.377Z,-0.63
2023-02-08T02:24:18.799Z,-0.69
2023-02-08T02:26:54.543Z,-0.82
2023-02-08T02:29:44.289Z,-0.78
2023-02-08T02:32:30.287Z,-1.74
2023-02-08T02:35:05.726Z,-0.74
2023-02-08T02:37:40.675Z,-0.73
2023-02-08T02:40:36.727Z,-0.75
2023-02-08T02:43:32.055Z,-1.33
2023-02-08T02:46:25.679Z,-0.89
2023-02-08T02:49:15.300Z,-1.72
2023-02-08T02:51:50.887Z,-0.87
2023-02-08T02:54:27.117Z,-1.40
2023-02-08T02:57:02.054Z,-0.92
2023-02-08T02:59:32.313Z,-1.22
2023-02-08T03:01:58.906Z,-1.46
2023-02-08T03:04:34.595Z,-0.85
2023-02-08T03:07:01.191Z,-1.49
2023-02-08T03:10:01.819Z,-0.82
2023-02-08T03:13:06.073Z,-0.74
2023-02-08T03:16:14.297Z,-0.62
2023-02-08T03:19:19.403Z,-0.55
2023-02-08T03:22:02.286Z,-0.70
2023-02-08T03:24:48.329Z,-0.51
2023-02-08T03:28:08.766Z,-0.30
2023-02-08T03:30:53.197Z,-0.51
2023-02-08T03:33:34.547Z,-0.95
2023-02-08T03:36:17.441Z,-0.47
2023-02-08T03:38:47.344Z,-0.34
2023-02-08T03:41:19.709Z,-0.30
2023-02-08T03:44:09.545Z,-0.16
2023-02-08T03:46:48.656Z,-0.32
2023-02-08T03:49:19.861Z,-0.42
2023-02-08T03:51:46.654Z,-0.15
2023-02-08T03:54:19.041Z,-0.41
2023-02-08T03:56:54.467Z,-0.26
2023-02-08T03:59:26.007Z,-0.56
2023-02-08T04:02:01.575Z,-0.36
2023-02-08T04:04:34.119Z,-0.34
2023-02-08T04:07:01.062Z,-0.19
2023-02-08T04:09:27.601Z,-0.39
2023-02-08T04:11:54.158Z,-0.56
2023-02-08T04:14:20.663Z,-0.44
2023-02-08T04:16:47.182Z,-0.94
2023-02-08T04:19:13.701Z,-0.43
2023-02-08T04:21:40.297Z,-0.36
2023-02-08T04:24:07.043Z,-0.44
2023-02-08T04:26:33.659Z,-0.45
2023-02-08T04:29:00.287Z,-0.45
2023-02-08T04:31:27.274Z,-0.57
2023-02-08T04:33:53.985Z,-1.37
2023-02-08T04:36:20.604Z,-0.50
2023-02-08T04:38:47.271Z,-0.47
2023-02-08T04:41:13.772Z,-0.42
2023-02-08T04:43:40.433Z,-0.54
2023-02-08T04:46:07.552Z,-0.48
2023-02-08T04:48:34.069Z,-0.37
2023-02-08T04:51:00.646Z,-0.55
2023-02-08T04:53:27.338Z,-0.65
2023-02-08T04:55:54.161Z,-0.60
2023-02-08T04:58:20.883Z,-0.39
2023-02-08T05:00:47.405Z,-0.52
2023-02-08T05:03:15.030Z,-0.24
2023-02-08T05:05:41.751Z,-0.48
2023-02-08T05:08:08.381Z,-0.54
2023-02-08T05:10:35.012Z,-0.43
2023-02-08T05:13:01.629Z,-0.23
2023-02-08T05:15:28.289Z,-0.60
2023-02-08T05:17:54.928Z,-0.39
2023-02-08T05:20:21.605Z,-0.88
2023-02-08T05:22:48.552Z,-0.41
2023-02-08T05:25:15.167Z,-0.29
2023-02-08T05:27:41.751Z,-0.53
2023-02-08T05:30:08.707Z,-0.01
2023-02-08T05:32:35.396Z,-0.21
2023-02-08T05:35:01.989Z,-0.40
2023-02-08T05:37:28.550Z,-0.18
2023-02-08T05:39:55.085Z,-0.21
2023-02-08T05:42:22.106Z,-0.49
2023-02-08T05:44:48.669Z,0.02
2023-02-08T05:47:15.313Z,-0.40
2023-02-08T05:49:41.871Z,-0.34
2023-02-08T05:52:08.365Z,0.08
2023-02-08T05:54:35.011Z,0.24
2023-02-08T05:57:01.942Z,-0.20
2023-02-08T05:59:28.843Z,0.09
2023-02-08T06:01:55.396Z,0.28
2023-02-08T06:04:22.013Z,0.21
2023-02-08T06:06:48.573Z,-0.45
2023-02-08T06:09:15.198Z,-0.04
2023-02-08T06:11:41.805Z,0.20
2023-02-08T06:14:08.348Z,0.06
2023-02-08T06:16:34.942Z,-0.43
2023-02-08T06:19:01.615Z,-0.02
2023-02-08T06:21:28.425Z,-0.17
2023-02-08T06:23:55.525Z,-0.77
2023-02-08T06:26:22.167Z,-0.25
2023-02-08T06:28:48.746Z,-0.40
2023-02-08T06:31:15.342Z,-0.88
2023-02-08T06:33:41.946Z,-0.27
2023-02-08T06:36:08.726Z,-0.24
2023-02-08T06:38:35.839Z,-0.42
2023-02-08T06:41:02.407Z,-0.45
2023-02-08T06:43:28.994Z,-0.54
2023-02-08T06:45:55.642Z,-0.53
2023-02-08T06:48:22.238Z,-0.77
2023-02-08T06:50:48.820Z,-0.72
2023-02-08T06:53:15.449Z,-1.25
2023-02-08T06:55:41.961Z,-0.88
2023-02-08T06:58:08.610Z,-0.87
2023-02-08T07:00:35.256Z,-0.92
2023-02-08T07:03:01.812Z,-0.75
2023-02-08T07:05:28.424Z,-0.68
2023-02-08T07:07:55.028Z,-1.47
2023-02-08T07:10:21.750Z,-1.45
2023-02-08T07:12:48.334Z,-0.94
2023-02-08T07:15:15.158Z,-1.40
2023-02-08T07:17:41.788Z,-1.44
2023-02-08T07:20:08.987Z,-1.36
2023-02-08T07:22:35.609Z,-0.99
2023-02-08T07:25:02.140Z,-0.87
2023-02-08T07:27:28.910Z,-0.93
2023-02-08T07:29:55.494Z,-0.92
2023-02-08T07:32:22.307Z,-0.73
2023-02-08T07:34:48.882Z,-0.71
2023-02-08T07:37:15.480Z,-0.90
2023-02-08T07:39:42.124Z,-0.48
2023-02-08T07:42:09.830Z,-0.81
2023-02-08T07:44:47.541Z,0.07
2023-02-08T07:47:14.166Z,0.59
2023-02-08T07:49:40.713Z,1.08
2023-02-08T07:52:07.235Z,0.77
2023-02-08T07:54:33.766Z,0.95
2023-02-08T07:57:02.525Z,0.99
2023-02-08T07:59:30.255Z,0.48
2023-02-08T08:01:56.864Z,1.04
2023-02-08T08:04:23.545Z,1.39
2023-02-08T08:06:51.445Z,1.72
2023-02-08T08:09:18.043Z,1.73
2023-02-08T08:11:44.606Z,2.71
2023-02-08T08:14:11.187Z,3.20
2023-02-08T08:16:37.804Z,3.41
2023-02-08T08:19:04.449Z,3.21
2023-02-08T08:21:30.973Z,3.44
2023-02-08T08:23:57.490Z,3.88
2023-02-08T08:26:24.022Z,4.45
2023-02-08T08:28:50.638Z,4.72
2023-02-08T08:31:20.114Z,4.94
2023-02-08T08:33:47.105Z,5.05
2023-02-08T08:36:14.069Z,4.94
2023-02-08T08:38:41.078Z,4.93
2023-02-08T08:41:14.600Z,5.62
2023-02-08T08:43:41.293Z,5.83
2023-02-08T08:46:08.498Z,5.93
2023-02-08T08:48:36.079Z,6.22
2023-02-08T08:51:03.084Z,6.19
2023-02-08T08:53:29.705Z,5.81
2023-02-08T08:55:56.265Z,5.77
2023-02-08T08:58:22.958Z,6.00
2023-02-08T09:00:50.070Z,6.18
2023-02-08T09:03:16.786Z,6.26
2023-02-08T09:05:43.350Z,6.70
2023-02-08T09:08:09.968Z,7.05
2023-02-08T09:10:36.516Z,7.36
2023-02-08T09:13:03.344Z,7.56
2023-02-08T09:15:30.065Z,7.72
2023-02-08T09:17:56.767Z,7.63
2023-02-08T09:20:23.966Z,7.41
2023-02-08T09:22:50.821Z,7.25
2023-02-08T09:25:17.573Z,7.78
2023-02-08T09:27:44.146Z,7.62
2023-02-08T09:30:11.165Z,8.35
2023-02-08T09:32:39.778Z,8.46
2023-02-08T09:35:08.321Z,8.51
2023-02-08T09:37:35.308Z,9.03
2023-02-08T09:40:02.099Z,9.41
2023-02-08T09:42:40.762Z,9.76
2023-02-08T09:45:51.119Z,9.90
2023-02-08T09:48:36.042Z,9.86
2023-02-08T09:51:38.384Z,10.51
2023-02-08T09:54:22.827Z,10.75
2023-02-08T09:56:50.565Z,10.29
2023-02-08T09:59:23.075Z,10.22
2023-02-08T10:01:53.719Z,10.47
2023-02-08T10:04:32.391Z,10.24
2023-02-08T10:06:59.026Z,10.03
2023-02-08T10:09:27.184Z,9.92
2023-02-08T10:12:25.987Z,10.53
2023-02-08T10:15:06.134Z,10.58
2023-02-08T10:17:51.110Z,10.84
2023-02-08T10:20:40.891Z,11.09
2023-02-08T10:23:33.756Z,11.24
2023-02-08T10:26:00.286Z,11.56
2023-02-08T10:29:28.487Z,11.65
2023-02-08T10:32:07.030Z,12.14
2023-02-08T10:34:42.640Z,12.79
2023-02-08T10:37:19.941Z,12.55
2023-02-08T10:39:49.274Z,13.20
2023-02-08T10:42:18.978Z,13.52
2023-02-08T10:45:22.777Z,13.26
2023-02-08T10:47:56.634Z,13.66
2023-02-08T10:50:34.041Z,13.83
2023-02-08T10:53:00.765Z,14.24
2023-02-08T10:55:27.513Z,14.33
2023-02-08T10:57:59.634Z,14.62
2023-02-08T11:00:33.360Z,14.91
2023-02-08T11:03:12.752Z,15.09
2023-02-08T11:05:41.084Z,15.61
2023-02-08T11:08:17.604Z,16.12
2023-02-08T11:10:56.339Z,16.02
2023-02-08T11:13:26.721Z,16.36
2023-02-08T11:16:00.050Z,17.08
2023-02-08T11:18:31.996Z,16.58
2023-02-08T11:21:01.957Z,16.72
2023-02-08T11:23:34.714Z,16.67
2023-02-08T11:26:20.941Z,16.47
2023-02-08T11:28:59.521Z,17.07
2023-02-08T11:31:26.306Z,17.29
2023-02-08T11:34:10.496Z,17.86
2023-02-08T11:36:44.459Z,18.11
2023-02-08T11:39:27.765Z,17.97
2023-02-08T11:41:58.725Z,18.09
2023-02-08T11:44:37.303Z,17.49
2023-02-08T11:47:08.931Z,18.41
2023-02-08T11:49:41.763Z,18.64
2023-02-08T11:52:21.376Z,17.51
2023-02-08T11:54:48.575Z,17.31
2023-02-08T11:57:32.604Z,18.58
2023-02-08T12:00:26.458Z,18.92
2023-02-08T12:03:03.933Z,19.41
2023-02-08T12:06:01.786Z,19.68
2023-02-08T12:08:41.467Z,19.07
2023-02-08T12:11:28.885Z,19.38
2023-02-08T12:14:14.068Z,19.22
2023-02-08T12:16:54.436Z,18.66
2023-02-08T12:19:27.013Z,19.79
2023-02-08T12:21:59.275Z,20.57
2023-02-08T12:25:01.116Z,20.68
2023-02-08T12:27:42.881Z,20.42
2023-02-08T12:30:27.214Z,19.19
2023-02-08T12:33:18.546Z,18.98
2023-02-08T12:36:15.229Z,19.53
2023-02-08T12:39:17.072Z,17.79
2023-02-08T12:42:04.742Z,15.05
2023-02-08T12:44:48.465Z,13.26
2023-02-08T12:47:20.951Z,12.35
2023-02-08T12:50:32.495Z,12.17
2023-02-08T12:53:21.838Z,14.44
2023-02-08T12:55:51.110Z,15.65
2023-02-08T12:58:47.060Z,17.18
2023-02-08T13:01:24.446Z,18.05
2023-02-08T13:04:09.076Z,18.90
2023-02-08T13:06:47.067Z,19.04
2023-02-08T13:09:35.835Z,19.24
2023-02-08T13:12:12.768Z,18.21
2023-02-08T13:14:47.526Z,19.16
2023-02-08T13:17:23.749Z,19.37
2023-02-08T13:20:23.217Z,19.41
2023-02-08T13:22:52.884Z,18.93
2023-02-08T13:25:31.408Z,19.34
2023-02-08T13:28:06.840Z,18.92
2023-02-08T13:30:39.891Z,19.36
2023-02-08T13:33:20.790Z,19.14
2023-02-08T13:35:52.966Z,19.58
2023-02-08T13:38:32.651Z,19.30
2023-02-08T13:41:21.121Z,19.04
2023-02-08T13:43:56.419Z,19.52
2023-02-08T13:46:25.968Z,19.24
2023-02-08T13:48:59.982Z,18.64
2023-02-08T13:51:32.755Z,18.06
2023-02-08T13:54:02.417Z,16.33
2023-02-08T13:56:49.731Z,15.40
2023-02-08T13:59:37.434Z,14.31
2023-02-08T14:02:14.431Z,14.70
2023-02-08T14:04:43.375Z,13.48
2023-02-08T14:07:09.839Z,13.54
2023-02-08T14:09:47.939Z,13.70
2023-02-08T14:12:36.233Z,13.94
2023-02-08T14:15:15.137Z,13.40
2023-02-08T14:17:47.324Z,12.91
2023-02-08T14:20:32.268Z,13.04
2023-02-08T14:23:03.196Z,11.74
2023-02-08T14:25:46.964Z,11.26
2023-02-08T14:28:40.239Z,11.25
2023-02-08T14:31:10.078Z,10.39
2023-02-08T14:33:42.747Z,10.00
2023-02-08T14:36:25.902Z,11.17
2023-02-08T14:39:24.337Z,11.99
2023-02-08T14:42:00.112Z,11.26
2023-02-08T14:44:38.865Z,12.77
2023-02-08T14:47:29.084Z,12.92
2023-02-08T14:50:10.843Z,12.78
2023-02-08T14:52:39.245Z,12.13
2023-02-08T14:55:26.570Z,13.14
2023-02-08T14:58:00.649Z,14.51
2023-02-08T15:00:33.164Z,14.63
2023-02-08T15:03:00.912Z,13.96
2023-02-08T15:05:37.657Z,13.19
2023-02-08T15:08:05.205Z,12.59
2023-02-08T15:10:33.162Z,11.62
2023-02-08T15:13:06.237Z,10.93
2023-02-08T15:15:36.647Z,10.92
2023-02-08T15:18:05.829Z,10.79
2023-02-08T15:20:35.468Z,9.62
2023-02-08T15:23:18.023Z,9.10
2023-02-08T15:25:53.548Z,8.97
2023-02-08T15:28:22.633Z,8.84
2023-02-08T15:30:58.206Z,8.46
2023-02-08T15:33:25.527Z,8.04
2023-02-08T15:35:57.500Z,7.54
2023-02-08T15:38:24.493Z,7.27
2023-02-08T15:41:12.108Z,6.38
2023-02-08T15:43:40.204Z,7.00
2023-02-08T15:46:20.208Z,6.90
2023-02-08T15:48:48.704Z,6.77
2023-02-08T15:51:16.114Z,6.10
2023-02-08T15:53:45.664Z,6.71
2023-02-08T15:56:35.367Z,6.37
2023-02-08T15:59:07.341Z,6.43
2023-02-08T16:01:34.428Z,5.90
2023-02-08T16:04:12.278Z,6.43
2023-02-08T16:06:45.825Z,5.72
2023-02-08T16:09:20.512Z,6.14
2023-02-08T16:11:50.012Z,5.98
2023-02-08T16:14:19.554Z,5.98
2023-02-08T16:16:53.393Z,5.69
2023-02-08T16:19:23.103Z,5.17
2023-02-08T16:21:50.333Z,5.38
2023-02-08T16:24:16.930Z,5.53
2023-02-08T16:26:47.476Z,5.21
2023-02-08T16:29:29.772Z,4.75
2023-02-08T16:32:13.333Z,4.95
2023-02-08T16:34:40.601Z,4.23
2023-02-08T16:37:22.859Z,4.47
2023-02-08T16:39:59.350Z,4.52
2023-02-08T16:42:33.931Z,4.29
2023-02-08T16:45:16.736Z,4.13
2023-02-08T16:47:51.223Z,4.17
2023-02-08T16:50:26.904Z,3.66
2023-02-08T16:52:56.437Z,3.82
2023-02-08T16:55:27.066Z,3.66
2023-02-08T16:57:56.502Z,3.25
2023-02-08T17:00:27.807Z,2.63
2023-02-08T17:02:55.165Z,3.14
2023-02-08T17:05:24.027Z,2.66
2023-02-08T17:07:51.220Z,2.42
2023-02-08T17:10:32.181Z,2.85
2023-02-08T17:13:17.524Z,2.67
2023-02-08T17:15:47.480Z,2.33
2023-02-08T17:18:14.445Z,1.94
2023-02-08T17:20:41.469Z,2.03
2023-02-08T17:23:08.090Z,2.15
2023-02-08T17:25:35.724Z,1.43
2023-02-08T17:28:05.491Z,1.89
2023-02-08T17:30:36.006Z,1.43
2023-02-08T17:33:03.967Z,1.22
2023-02-08T17:35:30.957Z,1.43
2023-02-08T17:37:58.410Z,1.70
2023-02-08T17:40:32.484Z,1.81
2023-02-08T17:43:03.337Z,1.70
2023-02-08T17:45:30.370Z,1.13
2023-02-08T17:48:00.014Z,1.58
2023-02-08T17:50:27.050Z,1.13
2023-02-08T17:52:54.114Z,1.71
2023-02-08T17:55:21.002Z,1.54
2023-02-08T17:57:48.068Z,1.84
2023-02-08T18:00:20.821Z,1.15
2023-02-08T18:02:50.215Z,1.87
2023-02-08T18:05:25.501Z,1.70
2023-02-08T18:07:54.673Z,0.67
2023-02-08T18:10:22.680Z,1.53
2023-02-08T18:12:49.448Z,1.73
2023-02-08T18:15:20.679Z,1.64
2023-02-08T18:17:48.452Z,0.99
2023-02-08T18:20:15.932Z,1.00
2023-02-08T18:22:43.187Z,1.61
2023-02-08T18:25:11.048Z,1.28
2023-02-08T18:27:38.046Z,1.84
2023-02-08T18:30:05.271Z,1.69
2023-02-08T18:32:31.820Z,2.15
2023-02-08T18:34:58.662Z,2.11
2023-02-08T18:37:25.480Z,2.02
2023-02-08T18:39:52.245Z,1.57
2023-02-08T18:42:18.936Z,2.40
2023-02-08T18:44:45.758Z,2.37
2023-02-08T18:47:12.484Z,2.48
2023-02-08T18:49:40.664Z,2.75
2023-02-08T18:52:09.382Z,2.85
2023-02-08T18:54:38.337Z,2.27
2023-02-08T18:57:06.229Z,2.19
2023-02-08T18:59:33.446Z,2.76
2023-02-08T19:02:01.620Z,2.69
2023-02-08T19:04:28.966Z,2.80
2023-02-08T19:06:55.496Z,2.74
2023-02-08T19:09:21.993Z,2.82
2023-02-08T19:11:48.885Z,2.79
2023-02-08T19:14:15.876Z,2.11
2023-02-08T19:16:43.148Z,2.75
2023-02-08T19:19:10.100Z,2.47
2023-02-08T19:21:36.811Z,2.55
2023-02-08T19:24:03.554Z,3.05
2023-02-08T19:26:33.387Z,3.11
2023-02-08T19:29:03.250Z,3.15
2023-02-08T19:31:30.825Z,2.83
2023-02-08T19:33:59.716Z,2.72
2023-02-08T19:36:30.328Z,2.74
2023-02-08T19:38:57.874Z,2.79
2023-02-08T19:41:28.253Z,3.41
2023-02-08T19:43:55.014Z,2.79
2023-02-08T19:46:23.968Z,2.79
2023-02-08T19:48:52.159Z,2.66
2023-02-08T19:51:19.393Z,2.96
2023-02-08T19:53:46.704Z,2.74
2023-02-08T19:56:15.792Z,2.71
2023-02-08T19:58:42.646Z,2.23
2023-02-08T20:01:19.527Z,2.25
2023-02-08T20:03:47.546Z,1.61
2023-02-08T20:06:15.447Z,1.60
2023-02-08T20:08:42.151Z,1.35
2023-02-08T20:11:19.868Z,1.41
2023-02-08T20:13:47.161Z,0.85
2023-02-08T20:16:14.442Z,1.05
2023-02-08T20:18:41.152Z,0.79
2023-02-08T20:21:08.527Z,0.81
2023-02-08T20:23:36.094Z,0.70
2023-02-08T20:26:10.633Z,0.62
2023-02-08T20:28:41.444Z,0.53
2023-02-08T20:31:14.165Z,0.38
2023-02-08T20:33:41.209Z,0.26
2023-02-08T20:36:16.170Z,0.27
2023-02-08T20:38:43.073Z,-0.40
2023-02-08T20:41:14.584Z,0.20
2023-02-08T20:43:42.802Z,-0.45
2023-02-08T20:46:14.395Z,-1.12
2023-02-08T20:48:41.063Z,-0.74
2023-02-08T20:51:10.537Z,-0.76
2023-02-08T20:53:38.896Z,-0.18
2023-02-08T20:56:07.282Z,-0.50
2023-02-08T20:58:34.113Z,-0.85
2023-02-08T21:01:01.206Z,-0.12
2023-02-08T21:03:27.869Z,-0.36
2023-02-08T21:05:54.495Z,-0.29
2023-02-08T21:08:21.071Z,-0.25
2023-02-08T21:10:47.615Z,-0.73
2023-02-08T21:13:14.184Z,-0.79
2023-02-08T21:15:44.095Z,-0.55
2023-02-08T21:18:12.537Z,-0.52
2023-02-08T21:20:40.291Z,0.06
2023-02-08T21:23:07.502Z,0.11
2023-02-08T21:25:34.100Z,-0.30
2023-02-08T21:28:00.881Z,-0.43
2023-02-08T21:30:27.606Z,0.23
2023-02-08T21:32:54.253Z,0.15
2023-02-08T21:35:20.870Z,-0.20
2023-02-08T21:37:47.541Z,0.09
2023-02-08T21:40:14.301Z,0.12
2023-02-08T21:42:40.935Z,0.31
2023-02-08T21:45:09.715Z,0.11
2023-02-08T21:47:36.887Z,0.01
2023-02-08T21:50:22.776Z,-0.05
2023-02-08T21:53:07.785Z,-0.18
2023-02-08T21:55:34.321Z,-0.06
2023-02-08T21:58:00.995Z,-0.25
2023-02-08T22:00:27.556Z,-0.08
2023-02-08T22:02:54.103Z,-0.19
2023-02-08T22:05:39.030Z,-0.60
2023-02-08T22:08:05.638Z,-0.18
2023-02-08T22:10:33.326Z,-0.17
2023-02-08T22:13:00.212Z,-0.04
2023-02-08T22:15:30.089Z,-0.48
2023-02-08T22:17:59.106Z,0.00
2023-02-08T22:20:26.793Z,0.10
2023-02-08T22:22:55.311Z,-0.02
2023-02-08T22:25:23.049Z,-0.04
2023-02-08T22:27:49.786Z,-0.58
2023-02-08T22:30:18.455Z,-0.11
2023-02-08T22:32:47.931Z,-0.60
2023-02-08T22:35:16.371Z,-0.29
2023-02-08T22:37:43.397Z,-0.85
2023-02-08T22:40:11.833Z,-0.36
2023-02-08T22:42:39.790Z,-0.48
2023-02-08T22:45:06.649Z,-0.57
2023-02-08T22:47:34.243Z,-1.15
2023-02-08T22:50:01.428Z,-0.82
2023-02-08T22:52:28.269Z,-0.94
2023-02-08T22:54:56.023Z,-0.93
2023-02-08T22:57:22.616Z,-1.07
2023-02-08T22:59:49.295Z,-1.11
2023-02-08T23:02:18.768Z,-0.97
2023-02-08T23:04:45.370Z,-1.26
2023-02-08T23:07:11.920Z,-1.61
2023-02-08T23:09:38.843Z,-1.84
2023-02-08T23:12:05.676Z,-1.24
2023-02-08T23:14:32.879Z,-1.32
2023-02-08T23:16:59.884Z,-1.28
2023-02-08T23:19:27.034Z,-1.17
2023-02-08T23:21:53.842Z,-1.17
2023-02-08T23:24:20.472Z,-1.42
2023-02-08T23:26:47.764Z,-1.29
2023-02-08T23:29:14.593Z,-1.45
2023-02-08T23:31:41.398Z,-1.56
2023-02-08T23:34:08.292Z,-1.65
2023-02-08T23:36:34.826Z,-1.86
2023-02-08T23:39:01.540Z,-1.45
2023-02-08T23:41:29.297Z,-1.43
2023-02-08T23:43:55.910Z,-1.52
2023-02-08T23:46:25.992Z,-1.29
2023-02-08T23:48:53.081Z,-1.38
2023-02-08T23:51:22.922Z,-1.81
2023-02-08T23:53:50.688Z,-1.27
2023-02-08T23:56:29.541Z,-2.28
2023-02-08T23:58:57.958Z,-1.81
